createdAt,value
2017-12-11T00:00:26.891Z,97136.88
2017-12-11T00:01:32.507Z,97142.56
2017-12-11T00:02:38.406Z,97146.70
2017-12-11T00:03:45.642Z,97148.98
2017-12-11T00:04:51.991Z,97147.47
2017-12-11T00:05:57.558Z,97148.72
2017-12-11T00:07:03.746Z,97156.70
2017-12-11T00:08:09.935Z,97155.41
2017-12-11T00:09:16.169Z,97149.50
2017-12-11T00:10:22.341Z,97147.96
2017-12-11T00:11:27.903Z,97139.65
2017-12-11T00:12:33.780Z,97142.70
2017-12-11T00:13:39.635Z,97148.98
2017-12-11T00:14:45.436Z,97153.35
2017-12-11T00:15:53.034Z,97156.63
2017-12-11T00:16:58.635Z,97152.00
2017-12-11T00:18:04.560Z,97139.77
2017-12-11T00:19:10.808Z,97132.66
2017-12-11T00:20:20.554Z,97135.10
2017-12-11T00:21:26.765Z,97119.95
2017-12-11T00:22:43.895Z,97107.91
2017-12-11T00:23:49.860Z,97109.00
2017-12-11T00:24:56.057Z,97096.13
2017-12-11T00:26:02.290Z,97109.31
2017-12-11T00:27:08.251Z,97101.28
2017-12-11T00:28:13.786Z,97100.09
2017-12-11T00:29:20.010Z,97100.39
2017-12-11T00:30:26.180Z,97114.02
2017-12-11T00:31:32.248Z,97111.71
2017-12-11T00:32:38.083Z,97109.02
2017-12-11T00:33:44.321Z,97110.80
2017-12-11T00:34:50.523Z,97122.44
2017-12-11T00:35:56.342Z,97126.37
2017-12-11T00:37:02.556Z,97122.02
2017-12-11T00:38:08.388Z,97122.37
2017-12-11T00:39:14.570Z,97121.03
2017-12-11T00:40:20.826Z,97126.37
2017-12-11T00:41:27.045Z,97137.04
2017-12-11T00:42:32.516Z,97142.19
2017-12-11T00:43:37.746Z,97144.41
2017-12-11T00:44:43.207Z,97141.09
2017-12-11T00:45:49.123Z,97141.92
2017-12-11T00:46:57.577Z,97137.77
2017-12-11T00:48:05.937Z,97138.13
2017-12-11T00:49:11.416Z,97133.13
2017-12-11T00:50:18.608Z,97136.91
2017-12-11T00:51:24.092Z,97134.22
2017-12-11T00:52:29.936Z,97136.61
2017-12-11T00:53:36.184Z,97139.89
2017-12-11T00:54:42.029Z,97141.34
2017-12-11T00:55:48.257Z,97152.43
2017-12-11T00:56:54.432Z,97152.92
2017-12-11T00:58:00.716Z,97146.60
2017-12-11T00:59:08.818Z,97144.02
2017-12-11T01:00:15.096Z,97152.45
2017-12-11T01:01:21.052Z,97150.30
2017-12-11T01:02:27.271Z,97153.42
2017-12-11T01:03:33.149Z,97157.25
2017-12-11T01:04:38.861Z,97153.55
2017-12-11T01:05:44.116Z,97160.92
2017-12-11T01:06:50.370Z,97161.05
2017-12-11T01:07:55.863Z,97161.28
2017-12-11T01:09:01.129Z,97170.96
2017-12-11T01:10:06.390Z,97174.19
2017-12-11T01:11:12.514Z,97173.20
2017-12-11T01:12:19.328Z,97177.70
2017-12-11T01:13:25.716Z,97174.03
2017-12-11T01:14:32.031Z,97168.31
2017-12-11T01:15:38.407Z,97171.11
2017-12-11T01:16:44.913Z,97178.06
2017-12-11T01:17:51.194Z,97178.05
2017-12-11T01:18:58.346Z,97176.41
2017-12-11T01:20:04.193Z,97182.09
2017-12-11T01:21:10.231Z,97174.84
2017-12-11T01:22:16.195Z,97176.76
2017-12-11T01:23:22.459Z,97181.06
2017-12-11T01:24:28.261Z,97183.88
2017-12-11T01:25:34.111Z,97179.27
2017-12-11T01:26:41.962Z,97179.69
2017-12-11T01:27:48.271Z,97173.91
2017-12-11T01:28:54.448Z,97169.30
2017-12-11T01:30:00.646Z,97177.44
2017-12-11T01:31:05.846Z,97176.43
2017-12-11T01:32:12.079Z,97176.23
2017-12-11T01:33:17.982Z,97171.55
2017-12-11T01:34:24.350Z,97173.00
2017-12-11T01:35:33.400Z,97174.72
2017-12-11T01:36:39.612Z,97174.50
2017-12-11T01:37:45.823Z,97179.08
2017-12-11T01:38:52.005Z,97167.02
2017-12-11T01:39:57.569Z,97176.77
2017-12-11T01:41:03.094Z,97189.04
2017-12-11T01:42:08.307Z,97186.73
2017-12-11T01:43:13.821Z,97194.22
2017-12-11T01:44:19.421Z,97191.25
2017-12-11T01:45:24.711Z,97191.77
2017-12-11T01:46:29.955Z,97194.78
2017-12-11T01:47:37.528Z,97197.84
2017-12-11T01:48:43.491Z,97195.03
2017-12-11T01:49:49.035Z,97195.50
2017-12-11T01:50:54.542Z,97201.00
2017-12-11T01:52:00.097Z,97207.88
2017-12-11T01:53:06.291Z,97202.47
2017-12-11T01:54:12.493Z,97209.11
2017-12-11T01:55:18.645Z,97201.98
2017-12-11T01:56:24.836Z,97200.13
2017-12-11T01:57:31.932Z,97199.64
2017-12-11T01:58:38.154Z,97211.84
2017-12-11T01:59:43.987Z,97207.90
2017-12-11T02:00:50.176Z,97217.97
2017-12-11T02:01:55.362Z,97214.69
2017-12-11T02:03:01.197Z,97223.06
2017-12-11T02:04:07.392Z,97221.13
2017-12-11T02:05:13.636Z,97216.92
2017-12-11T02:06:19.626Z,97222.62
2017-12-11T02:07:25.780Z,97222.62
2017-12-11T02:08:32.007Z,97228.23
2017-12-11T02:09:38.675Z,97225.42
2017-12-11T02:10:44.535Z,97227.07
2017-12-11T02:11:50.506Z,97221.83
2017-12-11T02:12:56.824Z,97232.73
2017-12-11T02:14:03.043Z,97225.97
2017-12-11T02:15:08.930Z,97230.84
2017-12-11T02:16:14.781Z,97237.75
2017-12-11T02:17:20.992Z,97235.11
2017-12-11T02:18:26.854Z,97238.41
2017-12-11T02:19:32.341Z,97239.77
2017-12-11T02:20:38.165Z,97241.02
2017-12-11T02:21:43.702Z,97236.75
2017-12-11T02:22:49.432Z,97236.65
2017-12-11T02:23:54.942Z,97233.64
2017-12-11T02:25:00.485Z,97234.98
2017-12-11T02:26:06.014Z,97226.58
2017-12-11T02:27:11.496Z,97236.67
2017-12-11T02:28:17.039Z,97236.78
2017-12-11T02:29:22.601Z,97233.91
2017-12-11T02:30:27.806Z,97235.44
2017-12-11T02:31:33.013Z,97233.96
2017-12-11T02:32:38.214Z,97244.63
2017-12-11T02:33:43.548Z,97242.48
2017-12-11T02:34:48.785Z,97244.52
2017-12-11T02:35:54.019Z,97237.39
2017-12-11T02:36:59.238Z,97246.20
2017-12-11T02:38:05.052Z,97239.25
2017-12-11T02:39:10.530Z,97243.23
2017-12-11T02:40:16.274Z,97248.83
2017-12-11T02:41:21.830Z,97252.17
2017-12-11T02:42:27.491Z,97253.52
2017-12-11T02:43:32.943Z,97248.27
2017-12-11T02:44:38.442Z,97245.77
2017-12-11T02:45:44.526Z,97248.95
2017-12-11T02:46:49.726Z,97241.41
2017-12-11T02:47:59.078Z,97242.81
2017-12-11T02:49:04.384Z,97247.88
2017-12-11T02:50:09.862Z,97245.08
2017-12-11T02:51:15.811Z,97245.61
2017-12-11T02:52:21.314Z,97243.31
2017-12-11T02:53:26.531Z,97241.09
2017-12-11T02:54:32.397Z,97243.78
2017-12-11T02:55:38.729Z,97239.10
2017-12-11T02:56:47.603Z,97244.09
2017-12-11T02:57:53.803Z,97240.62
2017-12-11T02:59:00.049Z,97239.52
2017-12-11T03:00:06.257Z,97240.35
2017-12-11T03:01:12.347Z,97240.11
2017-12-11T03:02:18.545Z,97241.45
2017-12-11T03:03:24.727Z,97249.45
2017-12-11T03:04:30.894Z,97249.20
2017-12-11T03:05:36.859Z,97260.58
2017-12-11T03:06:42.362Z,97256.36
2017-12-11T03:07:48.545Z,97253.77
2017-12-11T03:08:54.760Z,97253.30
2017-12-11T03:10:00.930Z,97257.76
2017-12-11T03:11:06.851Z,97264.65
2017-12-11T03:12:13.122Z,97268.11
2017-12-11T03:13:18.978Z,97271.63
2017-12-11T03:14:25.198Z,97269.59
2017-12-11T03:15:30.708Z,97273.98
2017-12-11T03:16:36.902Z,97279.59
2017-12-11T03:17:43.068Z,97280.90
2017-12-11T03:18:49.412Z,97272.80
2017-12-11T03:19:55.581Z,97265.02
2017-12-11T03:21:01.737Z,97263.30
2017-12-11T03:22:07.927Z,97267.14
2017-12-11T03:23:14.136Z,97273.92
2017-12-11T03:24:20.431Z,97285.31
2017-12-11T03:25:30.314Z,97293.48
2017-12-11T03:26:36.559Z,97285.95
2017-12-11T03:27:42.835Z,97292.45
2017-12-11T03:28:49.004Z,97299.62
2017-12-11T03:29:55.213Z,97300.26
2017-12-11T03:31:01.068Z,97298.03
2017-12-11T03:32:07.118Z,97295.99
2017-12-11T03:33:12.660Z,97308.05
2017-12-11T03:34:18.328Z,97309.09
2017-12-11T03:35:24.622Z,97305.14
2017-12-11T03:36:30.788Z,97310.76
2017-12-11T03:37:36.954Z,97311.69
2017-12-11T03:38:43.120Z,97324.02
2017-12-11T03:39:53.329Z,97315.64
2017-12-11T03:40:59.548Z,97320.63
2017-12-11T03:42:05.782Z,97318.14
2017-12-11T03:43:11.941Z,97324.92
2017-12-11T03:44:18.188Z,97319.77
2017-12-11T03:45:24.343Z,97326.55
2017-12-11T03:46:30.526Z,97331.87
2017-12-11T03:47:36.729Z,97338.78
2017-12-11T03:48:42.600Z,97338.24
2017-12-11T03:49:48.799Z,97353.83
2017-12-11T03:50:54.652Z,97352.33
2017-12-11T03:52:07.115Z,97356.98
2017-12-11T03:53:12.966Z,97366.92
2017-12-11T03:54:19.139Z,97369.69
2017-12-11T03:55:25.352Z,97377.64
2017-12-11T03:56:31.600Z,97387.08
2017-12-11T03:57:38.088Z,97383.72
2017-12-11T03:58:44.261Z,97382.42
2017-12-11T03:59:50.083Z,97377.36
2017-12-11T04:00:55.943Z,97389.94
2017-12-11T04:02:02.130Z,97403.33
2017-12-11T04:03:08.494Z,97390.47
2017-12-11T04:04:14.655Z,97387.24
2017-12-11T04:05:20.554Z,97384.06
2017-12-11T04:06:34.130Z,97387.61
2017-12-11T04:07:40.287Z,97398.63
2017-12-11T04:08:46.184Z,97397.17
2017-12-11T04:09:52.373Z,97403.41
2017-12-11T04:10:58.562Z,97403.08
2017-12-11T04:12:04.787Z,97396.38
2017-12-11T04:13:10.966Z,97398.30
2017-12-11T04:14:17.205Z,97397.67
2017-12-11T04:15:23.382Z,97400.95
2017-12-11T04:16:29.629Z,97410.58
2017-12-11T04:17:40.693Z,97422.69
2017-12-11T04:18:46.912Z,97415.61
2017-12-11T04:19:53.065Z,97433.50
2017-12-11T04:20:59.250Z,97428.03
2017-12-11T04:22:08.889Z,97441.38
2017-12-11T04:23:15.145Z,97435.21
2017-12-11T04:24:21.316Z,97442.47
2017-12-11T04:25:27.489Z,97448.46
2017-12-11T04:26:33.729Z,97457.80
2017-12-11T04:27:39.987Z,97457.77
2017-12-11T04:28:46.181Z,97461.83
2017-12-11T04:29:52.337Z,97469.38
2017-12-11T04:30:58.494Z,97468.74
2017-12-11T04:32:04.676Z,97471.69
2017-12-11T04:33:10.863Z,97474.77
2017-12-11T04:34:17.090Z,97478.41
2017-12-11T04:35:23.292Z,97473.88
2017-12-11T04:36:29.553Z,97472.16
2017-12-11T04:37:35.717Z,97479.09
2017-12-11T04:38:41.970Z,97469.14
2017-12-11T04:39:48.152Z,97474.40
2017-12-11T04:40:54.326Z,97474.70
2017-12-11T04:42:00.543Z,97484.08
2017-12-11T04:43:06.712Z,97477.50
2017-12-11T04:44:12.967Z,97474.09
2017-12-11T04:45:19.201Z,97479.39
2017-12-11T04:46:25.372Z,97483.28
2017-12-11T04:47:31.561Z,97481.91
2017-12-11T04:48:37.774Z,97482.92
2017-12-11T04:49:43.987Z,97490.81
2017-12-11T04:50:49.886Z,97490.30
2017-12-11T04:51:56.064Z,97497.77
2017-12-11T04:53:02.239Z,97488.42
2017-12-11T04:54:08.451Z,97489.72
2017-12-11T04:55:14.758Z,97490.77
2017-12-11T04:56:20.927Z,97490.25
2017-12-11T04:57:27.172Z,97485.18
2017-12-11T04:58:33.433Z,97492.91
2017-12-11T04:59:39.596Z,97495.70
2017-12-11T05:00:45.755Z,97506.57
2017-12-11T05:01:51.946Z,97496.55
2017-12-11T05:02:58.186Z,97505.16
2017-12-11T05:04:04.398Z,97505.48
2017-12-11T05:05:10.598Z,97516.09
2017-12-11T05:06:16.731Z,97516.72
2017-12-11T05:07:22.828Z,97523.27
2017-12-11T05:08:28.933Z,97523.27
2017-12-11T05:09:35.330Z,97522.13
2017-12-11T05:10:40.929Z,97531.69
2017-12-11T05:11:46.607Z,97535.58
2017-12-11T05:12:52.909Z,97540.06
2017-12-11T05:13:59.090Z,97535.95
2017-12-11T05:15:07.246Z,97538.05
2017-12-11T05:16:13.419Z,97535.02
2017-12-11T05:17:19.620Z,97537.98
2017-12-11T05:18:25.817Z,97537.93
2017-12-11T05:19:32.084Z,97539.48
2017-12-11T05:20:38.243Z,97541.16
2017-12-11T05:21:44.220Z,97541.99
2017-12-11T05:22:50.007Z,97546.61
2017-12-11T05:23:56.428Z,97540.43
2017-12-11T05:25:02.759Z,97540.77
2017-12-11T05:26:08.989Z,97542.66
2017-12-11T05:27:15.235Z,97545.84
2017-12-11T05:28:20.800Z,97545.43
2017-12-11T05:29:26.980Z,97544.63
2017-12-11T05:30:33.195Z,97548.69
2017-12-11T05:31:39.415Z,97546.94
2017-12-11T05:32:45.624Z,97547.27
2017-12-11T05:33:51.775Z,97554.82
2017-12-11T05:34:57.991Z,97555.28
2017-12-11T05:36:03.534Z,97547.73
2017-12-11T05:37:09.253Z,97548.95
2017-12-11T05:38:15.052Z,97546.46
2017-12-11T05:39:21.344Z,97539.84
2017-12-11T05:40:27.972Z,97549.59
2017-12-11T05:41:35.272Z,97548.29
2017-12-11T05:42:43.181Z,97544.13
2017-12-11T05:43:49.922Z,97545.77
2017-12-11T05:44:56.133Z,97541.20
2017-12-11T05:46:01.999Z,97539.73
2017-12-11T05:47:08.176Z,97548.42
2017-12-11T05:48:14.362Z,97553.42
2017-12-11T05:49:21.569Z,97553.92
2017-12-11T05:50:27.796Z,97560.18
2017-12-11T05:51:33.655Z,97554.27
2017-12-11T05:52:39.820Z,97556.66
2017-12-11T05:53:46.006Z,97557.54
2017-12-11T05:54:52.327Z,97561.77
2017-12-11T05:55:58.500Z,97562.60
2017-12-11T05:57:04.684Z,97563.37
2017-12-11T05:58:10.608Z,97568.41
2017-12-11T05:59:16.765Z,97577.63
2017-12-11T06:00:22.948Z,97584.22
2017-12-11T06:01:28.908Z,97588.61
2017-12-11T06:02:35.128Z,97591.09
2017-12-11T06:03:41.424Z,97591.97
2017-12-11T06:04:48.000Z,97597.84
2017-12-11T06:05:55.265Z,97599.64
2017-12-11T06:07:02.150Z,97602.38
2017-12-11T06:08:08.625Z,97602.96
2017-12-11T06:09:14.990Z,97604.72
2017-12-11T06:10:21.681Z,97608.12
2017-12-11T06:11:27.883Z,97611.02
2017-12-11T06:12:34.374Z,97615.37
2017-12-11T06:13:40.719Z,97617.89
2017-12-11T06:14:46.904Z,97624.64
2017-12-11T06:15:53.087Z,97630.48
2017-12-11T06:16:59.270Z,97629.10
2017-12-11T06:18:05.541Z,97629.05
2017-12-11T06:19:11.717Z,97634.47
2017-12-11T06:20:17.919Z,97635.05
2017-12-11T06:21:24.119Z,97629.84
2017-12-11T06:22:30.264Z,97630.77
2017-12-11T06:23:36.439Z,97621.09
2017-12-11T06:24:42.656Z,97617.98
2017-12-11T06:25:48.867Z,97616.89
2017-12-11T06:26:55.061Z,97612.11
2017-12-11T06:28:01.292Z,97611.14
2017-12-11T06:29:12.311Z,97607.58
2017-12-11T06:30:18.465Z,97613.20
2017-12-11T06:31:24.610Z,97611.89
2017-12-11T06:32:30.550Z,97607.33
2017-12-11T06:33:36.784Z,97612.78
2017-12-11T06:34:43.858Z,97616.34
2017-12-11T06:35:50.077Z,97624.02
2017-12-11T06:36:56.334Z,97626.20
2017-12-11T06:38:02.571Z,97634.26
2017-12-11T06:39:08.787Z,97631.91
2017-12-11T06:40:20.361Z,97641.80
2017-12-11T06:41:26.538Z,97652.28
2017-12-11T06:42:32.750Z,97655.42
2017-12-11T06:43:39.011Z,97660.16
2017-12-11T06:44:45.151Z,97667.34
2017-12-11T06:45:51.307Z,97670.20
2017-12-11T06:46:57.431Z,97668.10
2017-12-11T06:48:03.624Z,97671.96
2017-12-11T06:49:09.909Z,97676.23
2017-12-11T06:50:16.196Z,97669.16
2017-12-11T06:51:22.368Z,97668.65
2017-12-11T06:52:32.657Z,97665.52
2017-12-11T06:53:38.882Z,97666.67
2017-12-11T06:54:45.058Z,97667.97
2017-12-11T06:55:51.236Z,97666.89
2017-12-11T06:56:57.555Z,97659.59
2017-12-11T06:58:03.981Z,97655.94
2017-12-11T06:59:10.175Z,97650.02
2017-12-11T07:00:16.349Z,97652.08
2017-12-11T07:01:22.542Z,97656.41
2017-12-11T07:02:28.689Z,97652.16
2017-12-11T07:03:34.830Z,97646.63
2017-12-11T07:04:41.732Z,97646.12
2017-12-11T07:05:47.912Z,97646.37
2017-12-11T07:06:54.099Z,97647.88
2017-12-11T07:08:00.346Z,97651.23
2017-12-11T07:09:06.241Z,97651.09
2017-12-11T07:10:12.463Z,97643.09
2017-12-11T07:11:18.712Z,97634.45
2017-12-11T07:12:24.948Z,97633.41
2017-12-11T07:13:31.108Z,97638.81
2017-12-11T07:14:37.303Z,97644.26
2017-12-11T07:15:43.481Z,97647.36
2017-12-11T07:16:49.491Z,97653.09
2017-12-11T07:17:55.670Z,97652.64
2017-12-11T07:19:01.890Z,97650.30
2017-12-11T07:20:08.394Z,97658.18
2017-12-11T07:21:14.592Z,97657.84
2017-12-11T07:22:20.790Z,97653.44
2017-12-11T07:23:26.956Z,97653.20
2017-12-11T07:24:33.188Z,97661.00
2017-12-11T07:25:39.395Z,97659.86
2017-12-11T07:26:45.594Z,97654.36
2017-12-11T07:27:51.856Z,97654.94
2017-12-11T07:28:58.063Z,97661.65
2017-12-11T07:30:04.362Z,97663.48
2017-12-11T07:31:10.530Z,97673.66
2017-12-11T07:32:16.713Z,97674.17
2017-12-11T07:33:22.922Z,97679.06
2017-12-11T07:34:29.071Z,97676.85
2017-12-11T07:35:35.235Z,97675.51
2017-12-11T07:36:41.157Z,97665.65
2017-12-11T07:37:47.393Z,97656.26
2017-12-11T07:38:53.616Z,97651.73
2017-12-11T07:39:59.764Z,97658.36
2017-12-11T07:41:05.944Z,97662.78
2017-12-11T07:42:11.818Z,97664.27
2017-12-11T07:43:18.165Z,97666.66
2017-12-11T07:44:24.339Z,97661.34
2017-12-11T07:45:30.530Z,97657.22
2017-12-11T07:46:36.746Z,97656.65
2017-12-11T07:47:42.898Z,97655.48
2017-12-11T07:48:49.044Z,97666.34
2017-12-11T07:49:55.222Z,97667.27
2017-12-11T07:51:01.501Z,97675.22
2017-12-11T07:52:07.972Z,97674.98
2017-12-11T07:53:14.141Z,97671.08
2017-12-11T07:54:20.304Z,97671.54
2017-12-11T07:55:26.702Z,97668.83
2017-12-11T07:56:32.908Z,97678.41
2017-12-11T07:57:39.073Z,97681.06
2017-12-11T07:58:45.302Z,97679.28
2017-12-11T07:59:51.542Z,97680.97
2017-12-11T08:00:57.926Z,97676.14
2017-12-11T08:02:05.031Z,97680.41
2017-12-11T08:03:10.923Z,97675.51
2017-12-11T08:04:17.126Z,97676.19
2017-12-11T08:05:23.279Z,97670.91
2017-12-11T08:06:31.435Z,97675.59
2017-12-11T08:07:37.625Z,97678.20
2017-12-11T08:08:43.847Z,97691.08
2017-12-11T08:09:50.058Z,97695.44
2017-12-11T08:10:56.219Z,97707.34
2017-12-11T08:12:02.537Z,97712.53
2017-12-11T08:13:08.456Z,97719.88
2017-12-11T08:14:14.605Z,97713.75
2017-12-11T08:15:20.812Z,97719.25
2017-12-11T08:16:26.991Z,97714.03
2017-12-11T08:17:33.236Z,97718.06
2017-12-11T08:18:39.475Z,97718.41
2017-12-11T08:19:46.333Z,97713.18
2017-12-11T08:20:52.718Z,97715.02
2017-12-11T08:21:59.490Z,97718.20
2017-12-11T08:23:10.508Z,97722.69
2017-12-11T08:24:16.791Z,97719.16
2017-12-11T08:25:23.490Z,97714.70
2017-12-11T08:26:30.876Z,97713.83
2017-12-11T08:27:37.746Z,97707.37
2017-12-11T08:28:43.948Z,97711.14
2017-12-11T08:29:50.166Z,97706.66
2017-12-11T08:30:56.336Z,97705.83
2017-12-11T08:32:02.544Z,97702.77
2017-12-11T08:33:08.732Z,97700.70
2017-12-11T08:34:15.689Z,97697.52
2017-12-11T08:35:22.155Z,97703.23
2017-12-11T08:36:28.380Z,97694.70
2017-12-11T08:37:34.558Z,97701.30
2017-12-11T08:38:40.845Z,97697.33
2017-12-11T08:39:47.311Z,97701.42
2017-12-11T08:40:53.951Z,97694.88
2017-12-11T08:42:00.188Z,97695.31
2017-12-11T08:43:06.451Z,97697.64
2017-12-11T08:44:12.610Z,97705.75
2017-12-11T08:45:18.843Z,97707.66
2017-12-11T08:46:25.065Z,97708.38
2017-12-11T08:47:31.233Z,97705.36
2017-12-11T08:48:37.482Z,97713.87
2017-12-11T08:49:43.699Z,97709.55
2017-12-11T08:50:49.906Z,97711.02
2017-12-11T08:51:56.138Z,97709.63
2017-12-11T08:53:02.333Z,97708.00
2017-12-11T08:54:14.526Z,97719.38
2017-12-11T08:55:20.706Z,97722.43
2017-12-11T08:56:27.197Z,97727.30
2017-12-11T08:57:33.447Z,97727.19
2017-12-11T08:58:42.306Z,97723.91
2017-12-11T08:59:48.545Z,97720.97
2017-12-11T09:00:54.420Z,97717.58
2017-12-11T09:02:00.347Z,97715.30
2017-12-11T09:03:06.568Z,97726.95
2017-12-11T09:04:12.728Z,97727.84
2017-12-11T09:05:19.084Z,97733.47
2017-12-11T09:06:25.264Z,97731.53
2017-12-11T09:07:31.480Z,97734.24
2017-12-11T09:08:42.715Z,97724.84
2017-12-11T09:09:48.930Z,97730.41
2017-12-11T09:10:59.014Z,97728.17
2017-12-11T09:12:04.537Z,97728.73
2017-12-11T09:13:10.798Z,97718.72
2017-12-11T09:14:17.058Z,97726.09
2017-12-11T09:15:23.289Z,97714.17
2017-12-11T09:16:29.476Z,97715.86
2017-12-11T09:17:35.670Z,97713.68
2017-12-11T09:18:41.822Z,97709.36
2017-12-11T09:19:48.000Z,97700.24
2017-12-11T09:20:54.247Z,97696.77
2017-12-11T09:22:00.503Z,97694.91
2017-12-11T09:23:06.675Z,97692.62
2017-12-11T09:24:12.824Z,97687.53
2017-12-11T09:25:19.077Z,97691.66
2017-12-11T09:26:25.253Z,97685.36
2017-12-11T09:27:31.444Z,97674.17
2017-12-11T09:28:37.639Z,97672.56
2017-12-11T09:29:43.847Z,97669.18
2017-12-11T09:30:49.781Z,97675.77
2017-12-11T09:31:58.873Z,97671.54
2017-12-11T09:33:04.701Z,97673.97
2017-12-11T09:34:10.955Z,97678.64
2017-12-11T09:35:17.206Z,97681.73
2017-12-11T09:36:23.459Z,97680.25
2017-12-11T09:37:29.666Z,97682.42
2017-12-11T09:38:35.901Z,97687.30
2017-12-11T09:39:42.134Z,97693.55
2017-12-11T09:40:48.356Z,97690.00
2017-12-11T09:41:54.652Z,97694.50
2017-12-11T09:43:00.889Z,97694.47
2017-12-11T09:44:07.170Z,97698.31
2017-12-11T09:45:13.024Z,97695.41
2017-12-11T09:46:19.292Z,97693.97
2017-12-11T09:47:25.534Z,97696.05
2017-12-11T09:48:31.788Z,97697.44
2017-12-11T09:49:38.559Z,97700.92
2017-12-11T09:50:46.503Z,97709.97
2017-12-11T09:51:54.894Z,97705.58
2017-12-11T09:53:01.844Z,97708.45
2017-12-11T09:54:08.408Z,97706.56
2017-12-11T09:55:15.256Z,97705.77
2017-12-11T09:56:22.312Z,97700.17
2017-12-11T09:57:28.704Z,97696.30
2017-12-11T09:58:36.067Z,97696.34
2017-12-11T09:59:42.458Z,97692.13
2017-12-11T10:00:49.292Z,97697.09
2017-12-11T10:01:55.700Z,97696.95
2017-12-11T10:03:02.596Z,97698.71
2017-12-11T10:04:09.007Z,97698.94
2017-12-11T10:05:17.616Z,97697.80
2017-12-11T10:06:25.277Z,97689.17
2017-12-11T10:07:32.643Z,97689.70
2017-12-11T10:08:39.439Z,97690.92
2017-12-11T10:09:46.064Z,97687.91
2017-12-11T10:10:52.372Z,97691.89
2017-12-11T10:11:58.606Z,97690.59
2017-12-11T10:13:04.868Z,97689.82
2017-12-11T10:14:11.436Z,97689.29
2017-12-11T10:15:18.286Z,97687.16
2017-12-11T10:16:25.900Z,97689.44
2017-12-11T10:17:38.288Z,97685.97
2017-12-11T10:18:45.385Z,97685.23
2017-12-11T10:19:52.289Z,97682.08
2017-12-11T10:20:58.888Z,97676.70
2017-12-11T10:22:06.111Z,97670.81
2017-12-11T10:23:12.442Z,97680.05
2017-12-11T10:24:19.763Z,97674.36
2017-12-11T10:25:27.858Z,97672.72
2017-12-11T10:26:34.668Z,97677.89
2017-12-11T10:27:42.028Z,97666.19
2017-12-11T10:28:48.979Z,97659.17
2017-12-11T10:29:55.560Z,97652.34
2017-12-11T10:31:02.310Z,97655.70
2017-12-11T10:32:11.851Z,97653.53
2017-12-11T10:33:18.232Z,97647.81
2017-12-11T10:34:25.162Z,97639.11
2017-12-11T10:35:31.926Z,97636.09
2017-12-11T10:36:38.779Z,97631.23
2017-12-11T10:37:45.549Z,97635.36
2017-12-11T10:38:52.087Z,97630.55
2017-12-11T10:39:58.871Z,97629.53
2017-12-11T10:41:07.278Z,97623.00
2017-12-11T10:42:14.014Z,97615.29
2017-12-11T10:43:20.928Z,97613.58
2017-12-11T10:44:27.467Z,97605.00
2017-12-11T10:45:34.620Z,97601.78
2017-12-11T10:46:41.765Z,97600.84
2017-12-11T10:47:48.687Z,97604.66
2017-12-11T10:48:55.579Z,97611.75
2017-12-11T10:50:04.922Z,97607.75
2017-12-11T10:51:11.509Z,97606.98
2017-12-11T10:52:18.731Z,97610.22
2017-12-11T10:53:25.637Z,97616.41
2017-12-11T10:54:32.565Z,97615.11
2017-12-11T10:55:40.512Z,97627.73
2017-12-11T10:56:48.998Z,97621.52
2017-12-11T10:57:56.222Z,97621.55
2017-12-11T10:59:03.884Z,97619.11
2017-12-11T11:00:10.943Z,97616.33
2017-12-11T11:01:16.904Z,97607.98
2017-12-11T11:02:23.145Z,97605.34
2017-12-11T11:03:29.393Z,97599.09
2017-12-11T11:04:36.234Z,97593.59
2017-12-11T11:05:43.039Z,97594.55
2017-12-11T11:06:49.934Z,97605.80
2017-12-11T11:07:57.605Z,97615.67
2017-12-11T11:09:05.239Z,97611.52
2017-12-11T11:10:13.123Z,97603.28
2017-12-11T11:11:19.741Z,97591.11
2017-12-11T11:12:26.015Z,97595.30
2017-12-11T11:13:32.101Z,97592.59
2017-12-11T11:14:38.434Z,97595.61
2017-12-11T11:15:44.872Z,97596.88
2017-12-11T11:16:51.060Z,97591.87
2017-12-11T11:17:57.289Z,97595.90
2017-12-11T11:19:03.556Z,97598.89
2017-12-11T11:20:09.836Z,97594.45
2017-12-11T11:21:16.098Z,97594.94
2017-12-11T11:22:22.406Z,97585.84
2017-12-11T11:23:28.662Z,97590.72
2017-12-11T11:24:34.945Z,97588.13
2017-12-11T11:25:42.162Z,97590.22
2017-12-11T11:26:49.658Z,97591.78
2017-12-11T11:27:57.153Z,97588.31
2017-12-11T11:29:04.863Z,97575.79
2017-12-11T11:30:12.117Z,97579.88
2017-12-11T11:31:21.064Z,97577.09
2017-12-11T11:32:28.735Z,97575.57
2017-12-11T11:33:35.658Z,97576.91
2017-12-11T11:34:43.054Z,97575.16
2017-12-11T11:35:50.513Z,97566.81
2017-12-11T11:36:58.443Z,97565.82
2017-12-11T11:38:05.795Z,97556.86
2017-12-11T11:39:14.246Z,97550.38
2017-12-11T11:40:21.602Z,97548.31
2017-12-11T11:41:28.992Z,97550.55
2017-12-11T11:42:35.952Z,97555.89
2017-12-11T11:43:43.304Z,97548.22
2017-12-11T11:44:51.562Z,97544.12
2017-12-11T11:46:02.086Z,97536.38
2017-12-11T11:47:10.286Z,97541.59
2017-12-11T11:48:17.391Z,97529.92
2017-12-11T11:49:24.990Z,97536.63
2017-12-11T11:50:33.275Z,97533.57
2017-12-11T11:51:40.733Z,97536.41
2017-12-11T11:52:48.331Z,97533.77
2017-12-11T11:53:56.222Z,97529.41
2017-12-11T11:55:03.146Z,97518.88
2017-12-11T11:56:09.564Z,97514.67
2017-12-11T11:57:16.674Z,97513.88
2017-12-11T11:58:23.923Z,97503.84
2017-12-11T11:59:31.361Z,97505.22
2017-12-11T12:00:37.724Z,97498.44
2017-12-11T12:01:43.416Z,97493.87
2017-12-11T12:02:49.426Z,97506.78
2017-12-11T12:03:56.192Z,97502.24
2017-12-11T12:05:03.040Z,97505.89
2017-12-11T12:06:09.239Z,97506.50
2017-12-11T12:07:15.151Z,97503.09
2017-12-11T12:08:21.516Z,97498.78
2017-12-11T12:09:27.421Z,97504.06
2017-12-11T12:10:33.672Z,97495.92
2017-12-11T12:11:39.907Z,97487.28
2017-12-11T12:12:46.149Z,97484.30
2017-12-11T12:13:52.365Z,97480.58
2017-12-11T12:14:58.776Z,97484.05
2017-12-11T12:16:04.609Z,97484.61
2017-12-11T12:17:10.468Z,97478.19
2017-12-11T12:18:16.660Z,97462.34
2017-12-11T12:19:22.894Z,97461.72
2017-12-11T12:20:28.821Z,97472.20
2017-12-11T12:21:35.075Z,97470.98
2017-12-11T12:22:41.278Z,97469.34
2017-12-11T12:23:47.194Z,97468.27
2017-12-11T12:24:53.412Z,97461.30
2017-12-11T12:25:59.389Z,97465.38
2017-12-11T12:27:04.901Z,97466.53
2017-12-11T12:28:11.198Z,97452.86
2017-12-11T12:29:17.345Z,97454.33
2017-12-11T12:30:23.614Z,97457.14
2017-12-11T12:31:29.503Z,97455.42
2017-12-11T12:32:35.747Z,97449.53
2017-12-11T12:33:41.993Z,97449.78
2017-12-11T12:34:48.254Z,97437.15
2017-12-11T12:35:54.448Z,97433.36
2017-12-11T12:37:00.627Z,97426.03
2017-12-11T12:38:06.879Z,97425.01
2017-12-11T12:39:13.141Z,97428.87
2017-12-11T12:40:19.369Z,97430.95
2017-12-11T12:41:25.301Z,97428.55
2017-12-11T12:42:31.201Z,97421.58
2017-12-11T12:43:37.401Z,97418.81
2017-12-11T12:44:43.646Z,97421.45
2017-12-11T12:45:54.842Z,97414.33
2017-12-11T12:47:01.044Z,97412.35
2017-12-11T12:48:13.513Z,97416.11
2017-12-11T12:49:19.436Z,97410.47
2017-12-11T12:50:25.685Z,97407.16
2017-12-11T12:51:31.884Z,97399.63
2017-12-11T12:52:37.838Z,97400.64
2017-12-11T12:53:44.095Z,97397.02
2017-12-11T12:54:50.351Z,97394.90
2017-12-11T12:55:56.538Z,97382.80
2017-12-11T12:57:02.746Z,97377.38
2017-12-11T12:58:08.973Z,97376.84
2017-12-11T12:59:15.269Z,97383.58
2017-12-11T13:00:21.538Z,97379.11